Time;durP1;ratioP1;P1;durP2;ratioP2;P2;SDS_P1;SDS_P2;PMS_P1;PMS_P2;Temp;Humidity;BMP_temperature;BMP_pressure;BME280_temperature;BME280_humidity;BME280_pressure;Samples;Min_cycle;Max_cycle;Signal;HPM_P1;HPM_P2
2023/10/23 00:00:40;;;;;;;11.90;8.60;;;;;;;11.10;98.15;97261.65;110178;1242;69037;-69
2023/10/23 00:03:32;;;;;;;11.20;8.50;;;;;;;11.05;98.48;97266.94;110182;1241;68638;-69
2023/10/23 00:06:06;;;;;;;12.10;7.00;;;;;;;11.02;97.40;97271.85;110141;1242;59685;-69
2023/10/23 00:08:48;;;;;;;8.90;7.00;;;;;;;11.00;99.54;97276.20;110140;1240;59630;-68
2023/10/23 00:11:28;;;;;;;8.90;6.90;;;;;;;10.97;99.64;97277.15;110150;1240;71434;-69
2023/10/23 00:14:07;;;;;;;9.30;7.20;;;;;;;10.95;97.53;97275.92;110140;1242;69229;-70
2023/10/23 00:16:46;;;;;;;9.00;6.20;;;;;;;10.94;98.88;97277.88;110151;1240;69320;-70
2023/10/23 00:19:21;;;;;;;8.70;6.40;;;;;;;10.93;98.97;97279.52;110145;1242;59667;-67
2023/10/23 00:21:55;;;;;;;7.70;5.60;;;;;;;10.96;100.00;97280.74;110135;1242;59743;-69
2023/10/23 00:24:37;;;;;;;8.90;6.30;;;;;;;11.04;100.00;97281.32;110135;1242;70619;-69
2023/10/23 00:27:09;;;;;;;8.50;5.60;;;;;;;11.02;100.00;97280.91;110166;1243;69086;-69
2023/10/23 00:29:42;;;;;;;8.80;6.40;;;;;;;11.01;100.00;97282.25;110088;1247;69132;-69
2023/10/23 00:32:18;;;;;;;7.30;5.40;;;;;;;11.02;100.00;97281.16;110165;1240;59675;-69
2023/10/23 00:35:00;;;;;;;8.80;5.80;;;;;;;10.99;100.00;97275.08;110164;1240;59730;-69
2023/10/23 00:37:35;;;;;;;7.10;5.30;;;;;;;10.93;100.00;97277.81;110169;1242;71431;-69
2023/10/23 00:40:11;;;;;;;8.60;6.10;;;;;;;10.80;100.00;97275.13;110178;1244;69048;-68
2023/10/23 00:42:44;;;;;;;9.10;5.90;;;;;;;10.75;100.00;97274.09;110147;1240;69279;-67
2023/10/23 00:45:21;;;;;;;9.80;6.30;;;;;;;10.76;100.00;97276.65;110164;1242;59754;-68
2023/10/23 00:47:56;;;;;;;9.20;6.50;;;;;;;10.86;100.00;97279.04;110145;1240;59723;-68
2023/10/23 00:50:30;;;;;;;9.10;6.00;;;;;;;10.88;97.39;97271.72;110169;1240;70803;-68
2023/10/23 00:53:04;;;;;;;9.30;7.10;;;;;;;10.92;94.36;97272.47;110135;1243;69220;-68
2023/10/23 00:55:40;;;;;;;12.50;7.50;;;;;;;10.95;95.12;97272.73;110144;1240;69319;-67
2023/10/23 00:58:15;;;;;;;8.30;7.20;;;;;;;10.99;98.90;97274.39;110122;1240;59707;-68
2023/10/23 01:00:49;;;;;;;7.60;6.30;;;;;;;11.02;100.00;97276.42;110148;1244;59664;-68
2023/10/23 01:03:31;;;;;;;7.80;5.10;;;;;;;11.06;100.00;97279.58;110155;1242;71597;-67
2023/10/23 01:06:07;;;;;;;8.70;6.00;;;;;;;11.11;100.00;97286.38;110116;1244;68736;-68
2023/10/23 01:08:39;;;;;;;11.90;7.30;;;;;;;11.15;100.00;97289.00;110152;1245;67364;-68
2023/10/23 01:11:14;;;;;;;9.20;5.90;;;;;;;11.17;100.00;97287.61;110111;1240;59741;-68
2023/10/23 01:13:52;;;;;;;8.60;6.90;;;;;;;11.21;100.00;97283.16;110093;1244;60208;-68
2023/10/23 01:16:26;;;;;;;7.20;6.10;;;;;;;11.22;100.00;97282.54;110166;1242;71410;-68
2023/10/23 01:19:03;;;;;;;8.40;6.10;;;;;;;11.24;100.00;97282.41;110130;1240;68269;-68
2023/10/23 01:21:54;;;;;;;7.90;5.50;;;;;;;11.24;100.00;97284.14;110106;1249;69663;-68
2023/10/23 01:24:40;;;;;;;7.60;6.00;;;;;;;11.23;100.00;97285.59;110174;1243;60079;-68
2023/10/23 01:27:17;;;;;;;10.40;6.90;;;;;;;11.25;100.00;97286.18;110177;1240;59693;-68
2023/10/23 01:30:03;;;;;;;8.40;6.50;;;;;;;11.20;100.00;97289.16;110147;1244;70331;-68
2023/10/23 01:32:47;;;;;;;10.80;8.30;;;;;;;11.16;100.00;97288.01;110152;1241;68323;-67
2023/10/23 01:35:25;;;;;;;8.50;6.10;;;;;;;11.15;100.00;97287.41;110071;1244;69159;-68
2023/10/23 01:37:59;;;;;;;7.90;6.00;;;;;;;11.15;100.00;97291.58;110126;1243;59740;-67
2023/10/23 01:40:43;;;;;;;7.20;5.80;;;;;;;11.16;100.00;97294.88;110142;1243;59714;-68
2023/10/23 01:43:23;;;;;;;7.40;6.10;;;;;;;11.17;100.00;97294.78;110071;1243;71206;-68
2023/10/23 01:46:00;;;;;;;9.80;7.20;;;;;;;11.17;100.00;97295.15;110181;1240;68707;-68
2023/10/23 01:48:39;;;;;;;8.30;6.10;;;;;;;11.16;100.00;97299.21;110176;1240;68543;-68
2023/10/23 01:51:12;;;;;;;12.20;8.50;;;;;;;11.14;100.00;97303.16;110147;1245;59703;-70
2023/10/23 01:53:45;;;;;;;10.30;7.70;;;;;;;11.07;100.00;97303.08;110160;1243;59734;-67
2023/10/23 01:56:21;;;;;;;9.60;6.40;;;;;;;10.99;100.00;97304.19;110157;1242;70632;-69
2023/10/23 01:58:54;;;;;;;10.00;6.80;;;;;;;10.93;100.00;97306.41;110172;1244;69128;-68
2023/10/23 02:01:38;;;;;;;7.30;5.70;;;;;;;10.89;100.00;97304.95;110179;1241;68420;-68
2023/10/23 02:04:16;;;;;;;9.90;8.40;;;;;;;10.79;100.00;97312.02;110090;1242;59744;-68
2023/10/23 02:06:53;;;;;;;7.30;6.40;;;;;;;10.66;100.00;97312.38;110160;1241;59679;-68
2023/10/23 02:09:31;;;;;;;8.90;7.10;;;;;;;10.59;100.00;97317.98;110177;1240;71487;-69
2023/10/23 02:12:19;;;;;;;10.30;7.20;;;;;;;10.51;100.00;97322.08;110149;1242;69435;-69
2023/10/23 02:14:56;;;;;;;10.50;7.50;;;;;;;10.42;100.00;97321.19;110077;1241;69341;-70
2023/10/23 02:17:33;;;;;;;10.40;7.80;;;;;;;10.34;100.00;97320.91;110128;1240;59746;-69
2023/10/23 02:20:11;;;;;;;11.00;7.40;;;;;;;10.27;100.00;97318.13;110084;1244;59674;-69
2023/10/23 02:22:45;;;;;;;10.40;7.40;;;;;;;10.23;100.00;97322.23;109991;1245;70694;-69
2023/10/23 02:25:18;;;;;;;8.30;6.40;;;;;;;10.19;100.00;97323.48;110098;1244;68580;-67
2023/10/23 02:27:51;;;;;;;8.90;7.30;;;;;;;10.17;100.00;97321.60;110070;1244;69275;-67
2023/10/23 02:30:26;;;;;;;7.50;6.40;;;;;;;10.14;100.00;97325.64;110185;1241;59728;-69
2023/10/23 02:33:02;;;;;;;9.40;7.30;;;;;;;10.11;100.00;97327.75;110135;1244;59726;-69
2023/10/23 02:35:45;;;;;;;8.90;7.20;;;;;;;10.07;100.00;97332.73;110174;1245;70624;-68
2023/10/23 02:38:18;;;;;;;10.80;8.40;;;;;;;10.04;100.00;97332.33;110207;1242;69310;-68
2023/10/23 02:40:53;;;;;;;11.20;7.20;;;;;;;9.99;100.00;97335.79;110115;1243;69123;-68
2023/10/23 02:43:25;;;;;;;7.70;6.10;;;;;;;9.94;100.00;97335.06;110118;1244;59684;-68
2023/10/23 02:46:04;;;;;;;9.00;7.10;;;;;;;9.90;100.00;97333.98;110176;1242;59652;-68
2023/10/23 02:48:38;;;;;;;11.10;9.10;;;;;;;9.87;100.00;97331.77;110176;1240;70783;-68
2023/10/23 02:51:11;;;;;;;12.90;8.40;;;;;;;9.87;100.00;97337.87;110138;1240;67552;-68
2023/10/23 02:53:43;;;;;;;9.50;7.60;;;;;;;9.84;100.00;97337.17;110127;1241;68437;-68
2023/10/23 02:56:16;;;;;;;9.60;7.50;;;;;;;9.81;100.00;97337.92;110112;1243;59715;-68
2023/10/23 02:58:49;;;;;;;10.70;7.00;;;;;;;9.79;100.00;97341.75;110136;1240;59649;-68
2023/10/23 03:01:23;;;;;;;8.40;6.20;;;;;;;9.77;100.00;97351.77;110157;1242;71475;-68
2023/10/23 03:03:57;;;;;;;9.60;6.40;;;;;;;9.78;100.00;97354.70;110136;1243;69289;-68
2023/10/23 03:06:29;;;;;;;8.70;6.30;;;;;;;9.80;100.00;97357.15;110129;1243;68716;-68
2023/10/23 03:09:03;;;;;;;8.60;6.30;;;;;;;9.79;100.00;97356.65;110131;1243;59711;-68
2023/10/23 03:11:35;;;;;;;11.30;7.30;;;;;;;9.81;100.00;97354.83;110150;1243;59683;-68
2023/10/23 03:14:08;;;;;;;7.90;6.60;;;;;;;9.85;100.00;97354.54;110153;1243;71392;-69
2023/10/23 03:16:38;;;;;;;7.00;5.60;;;;;;;9.89;100.00;97356.16;110131;1242;68750;-69
2023/10/23 03:19:09;;;;;;;9.10;7.10;;;;;;;9.90;100.00;97364.98;110080;1245;69489;-69
2023/10/23 03:21:41;;;;;;;8.20;6.20;;;;;;;9.88;100.00;97370.82;110144;1242;59743;-69
2023/10/23 03:24:12;;;;;;;8.50;6.10;;;;;;;9.85;100.00;97368.41;110158;1240;59740;-69
2023/10/23 03:26:44;;;;;;;8.30;6.00;;;;;;;9.84;100.00;97370.59;110134;1242;70611;-69
2023/10/23 03:29:14;;;;;;;8.30;6.00;;;;;;;9.83;100.00;97373.14;110154;1244;69121;-69
2023/10/23 03:31:45;;;;;;;8.60;6.10;;;;;;;9.77;100.00;97371.61;110136;1244;68346;-68
2023/10/23 03:34:15;;;;;;;8.60;6.80;;;;;;;9.73;100.00;97371.06;110150;1244;59728;-68
2023/10/23 03:36:46;;;;;;;8.80;6.50;;;;;;;9.68;100.00;97371.32;110193;1243;59690;-68
2023/10/23 03:39:16;;;;;;;11.90;7.80;;;;;;;9.65;100.00;97376.27;110140;1242;70622;-68
2023/10/23 03:41:48;;;;;;;9.20;6.60;;;;;;;9.61;100.00;97378.13;110179;1242;68574;-70
2023/10/23 03:44:19;;;;;;;8.90;5.90;;;;;;;9.59;100.00;97378.41;110170;1242;68497;-69
2023/10/23 03:46:50;;;;;;;7.20;5.90;;;;;;;9.56;100.00;97377.06;110146;1242;59737;-68
2023/10/23 03:49:22;;;;;;;10.00;6.40;;;;;;;9.54;100.00;97377.23;110241;1241;59726;-68
2023/10/23 03:51:52;;;;;;;8.30;5.70;;;;;;;9.52;100.00;97377.19;110153;1242;70666;-68
2023/10/23 03:54:24;;;;;;;8.70;5.60;;;;;;;9.49;100.00;97378.98;110185;1243;68600;-68
2023/10/23 03:56:54;;;;;;;10.50;6.90;;;;;;;9.43;100.00;97382.14;110116;1249;69314;-67
2023/10/23 03:59:24;;;;;;;7.20;5.80;;;;;;;9.38;100.00;97381.12;110133;1241;59708;-68
2023/10/23 04:01:54;;;;;;;9.10;6.20;;;;;;;9.34;100.00;97382.45;110180;1242;59669;-69
2023/10/23 04:04:24;;;;;;;9.70;5.90;;;;;;;9.31;100.00;97384.06;110159;1242;70932;-68
2023/10/23 04:06:54;;;;;;;7.20;5.50;;;;;;;9.29;100.00;97386.61;110167;1244;69273;-67
2023/10/23 04:09:24;;;;;;;8.00;6.30;;;;;;;9.27;100.00;97388.44;110124;1245;69223;-69
2023/10/23 04:11:57;;;;;;;8.30;6.10;;;;;;;9.26;100.00;97392.20;110161;1242;59740;-70
2023/10/23 04:14:26;;;;;;;;;;;;;;;9.23;100.00;97394.65;110179;1243;59758;-68
2023/10/23 04:16:57;;;;;;;10.40;6.60;;;;;;;9.23;100.00;97396.39;110114;1243;70660;-68
2023/10/23 04:19:27;;;;;;;8.80;7.10;;;;;;;9.21;100.00;97399.15;110160;1242;69875;-68
2023/10/23 04:21:57;;;;;;;7.50;4.70;;;;;;;9.16;100.00;97395.77;110155;1240;68540;-69
2023/10/23 04:24:27;;;;;;;7.60;5.60;;;;;;;9.00;100.00;97396.92;110132;1244;59665;-68
2023/10/23 04:26:57;;;;;;;;;;;;;;;8.94;100.00;97395.20;110125;1243;59721;-68
2023/10/23 04:29:27;;;;;;;6.80;5.20;;;;;;;8.90;100.00;97397.02;110133;1242;71202;-68
2023/10/23 04:31:57;;;;;;;9.90;6.90;;;;;;;8.86;100.00;97395.73;110149;1240;67427;-67
2023/10/23 04:34:27;;;;;;;9.60;6.60;;;;;;;8.83;100.00;97399.95;110143;1243;68316;-68
2023/10/23 04:36:56;;;;;;;12.00;9.20;;;;;;;8.91;100.00;97400.80;110165;1242;59729;-68
2023/10/23 04:39:27;;;;;;;11.20;7.40;;;;;;;8.90;100.00;97400.36;110143;1240;59719;-67
2023/10/23 04:41:58;;;;;;;9.70;7.10;;;;;;;8.79;100.00;97395.00;110133;1244;70868;-68
2023/10/23 04:44:28;;;;;;;11.00;7.00;;;;;;;8.77;100.00;97396.65;110153;1243;69279;-68
2023/10/23 04:46:59;;;;;;;12.00;8.00;;;;;;;8.76;100.00;97402.98;110137;1242;69944;-68
2023/10/23 04:49:30;;;;;;;11.00;8.30;;;;;;;8.73;100.00;97405.81;110151;1242;59631;-69
2023/10/23 04:52:01;;;;;;;10.70;8.60;;;;;;;8.70;100.00;97403.56;110145;1243;59804;-68
2023/10/23 04:54:30;;;;;;;14.80;11.50;;;;;;;8.69;100.00;97409.20;110132;1240;70466;-68
2023/10/23 04:57:01;;;;;;;12.00;8.40;;;;;;;8.64;100.00;97411.60;110125;1242;68392;-68
2023/10/23 04:59:33;;;;;;;11.20;7.00;;;;;;;8.63;100.00;97418.45;110157;1243;69919;-70
2023/10/23 05:02:03;;;;;;;11.80;7.60;;;;;;;8.67;100.00;97429.27;110267;1242;59733;-68
2023/10/23 05:04:33;;;;;;;11.60;9.40;;;;;;;8.66;100.00;97431.28;110170;1244;59686;-68
2023/10/23 05:07:02;;;;;;;11.60;8.70;;;;;;;8.67;100.00;97434.30;110185;1242;70857;-68
2023/10/23 05:09:33;;;;;;;12.30;10.80;;;;;;;8.70;100.00;97435.92;110166;1240;69279;-68
2023/10/23 05:12:04;;;;;;;9.50;7.40;;;;;;;8.72;100.00;97443.22;110176;1242;69082;-68
2023/10/23 05:14:35;;;;;;;12.20;8.80;;;;;;;8.73;100.00;97453.44;110204;1242;59753;-68
2023/10/23 05:17:05;;;;;;;13.00;9.20;;;;;;;8.72;100.00;97454.12;110187;1242;59710;-68
2023/10/23 05:19:35;;;;;;;;;;;;;;;8.81;100.00;97453.77;110169;1244;70845;-67
2023/10/23 05:22:04;;;;;;;8.50;6.30;;;;;;;8.89;100.00;97460.35;110208;1244;69868;-70
2023/10/23 05:24:33;;;;;;;9.20;6.20;;;;;;;8.93;100.00;97460.92;110094;1244;69268;-68
2023/10/23 05:27:03;;;;;;;10.30;6.80;;;;;;;8.98;100.00;97460.13;110113;1243;59733;-69
2023/10/23 05:29:32;;;;;;;10.80;7.60;;;;;;;9.05;100.00;97460.69;110136;1242;59679;-71
2023/10/23 05:32:01;;;;;;;9.50;6.80;;;;;;;9.13;100.00;97467.84;110186;1243;71991;-68
2023/10/23 05:34:30;;;;;;;8.40;6.00;;;;;;;9.21;100.00;97472.17;110143;1241;68734;-69
2023/10/23 05:37:00;;;;;;;6.50;4.90;;;;;;;9.30;100.00;97471.73;110126;1242;69059;-69
2023/10/23 05:39:29;;;;;;;8.20;5.70;;;;;;;9.42;100.00;97475.13;110145;1242;59699;-69
2023/10/23 05:41:59;;;;;;;6.80;5.10;;;;;;;9.50;100.00;97481.34;110310;1242;59738;-67
2023/10/23 05:44:28;;;;;;;9.20;5.70;;;;;;;9.61;100.00;97482.38;110111;1242;72021;-68
2023/10/23 05:46:58;;;;;;;7.30;5.60;;;;;;;9.68;100.00;97487.56;110186;1242;69809;-67
2023/10/23 05:49:28;;;;;;;8.30;5.70;;;;;;;9.80;100.00;97489.23;110148;1244;68425;-67
2023/10/23 05:51:58;;;;;;;9.40;7.00;;;;;;;9.91;100.00;97493.15;110189;1240;59654;-68
2023/10/23 05:54:27;;;;;;;9.20;6.40;;;;;;;10.00;100.00;97491.88;110179;1241;59739;-67
2023/10/23 05:56:57;;;;;;;8.30;5.80;;;;;;;10.11;100.00;97490.05;110115;1241;71229;-67
2023/10/23 05:59:27;;;;;;;8.50;4.90;;;;;;;10.26;100.00;97494.77;110174;1244;69228;-69
2023/10/23 06:01:56;;;;;;;8.00;6.10;;;;;;;10.41;100.00;97492.85;110115;1250;69543;-68
2023/10/23 06:04:26;;;;;;;8.90;6.30;;;;;;;10.55;100.00;97496.94;110138;1243;60109;-68
2023/10/23 06:06:57;;;;;;;10.20;6.60;;;;;;;10.68;100.00;97500.88;110184;1242;59716;-67
2023/10/23 06:09:28;;;;;;;9.40;6.90;;;;;;;10.78;100.00;97493.16;110179;1242;72015;-68
2023/10/23 06:11:58;;;;;;;8.00;6.30;;;;;;;10.88;100.00;97494.87;110117;1240;69453;-69
2023/10/23 06:14:27;;;;;;;8.60;6.30;;;;;;;11.00;100.00;97498.55;110204;1242;68193;-69
2023/10/23 06:16:57;;;;;;;9.60;6.60;;;;;;;11.18;100.00;97501.20;110215;1244;59712;-70
2023/10/23 06:19:26;;;;;;;9.80;6.30;;;;;;;11.36;100.00;97497.83;110326;1244;59625;-68
2023/10/23 06:21:55;;;;;;;6.50;5.10;;;;;;;11.57;100.00;97498.66;110164;1243;70673;-68
2023/10/23 06:24:26;;;;;;;7.80;5.80;;;;;;;11.86;100.00;97505.58;110199;1240;69810;-67
2023/10/23 06:26:55;;;;;;;7.40;5.60;;;;;;;12.14;100.00;97503.90;110295;1242;69259;-68
2023/10/23 06:29:25;;;;;;;7.90;5.70;;;;;;;12.38;100.00;97503.45;110681;1242;59662;-68
2023/10/23 06:31:56;;;;;;;7.30;4.80;;;;;;;12.65;100.00;97506.38;110860;1242;59599;-68
2023/10/23 06:34:27;;;;;;;7.50;5.30;;;;;;;12.85;100.00;97506.91;110623;1242;71566;-69
2023/10/23 06:36:57;;;;;;;10.20;6.80;;;;;;;13.03;100.00;97510.90;110232;1242;69818;-69
2023/10/23 06:39:28;;;;;;;10.50;8.40;;;;;;;13.21;100.00;97513.23;110186;1242;67562;-69
2023/10/23 06:41:57;;;;;;;11.20;9.30;;;;;;;13.21;100.00;97514.14;110187;1244;59704;-68
2023/10/23 06:44:28;;;;;;;12.10;9.20;;;;;;;13.19;100.00;97514.83;110141;1242;59790;-70
2023/10/23 06:46:58;;;;;;;12.20;9.90;;;;;;;13.37;100.00;97517.08;110280;1241;71368;-69
2023/10/23 06:49:27;;;;;;;12.90;10.30;;;;;;;13.52;98.60;97519.98;110191;1242;69249;-70
2023/10/23 06:51:57;;;;;;;12.60;10.30;;;;;;;13.71;97.75;97517.48;110205;1244;69614;-70
2023/10/23 06:54:29;;;;;;;12.30;9.40;;;;;;;13.96;96.05;97525.25;110182;1240;59769;-70
2023/10/23 06:56:59;;;;;;;13.00;10.10;;;;;;;14.13;95.24;97526.80;110141;1242;60129;-69
2023/10/23 06:59:28;;;;;;;12.00;9.70;;;;;;;14.34;94.52;97532.35;110131;1244;70494;-70
2023/10/23 07:01:58;;;;;;;9.60;7.40;;;;;;;14.60;93.63;97536.61;110150;1242;68506;-71
2023/10/23 07:04:28;;;;;;;10.70;7.90;;;;;;;14.91;91.45;97530.70;110130;1248;69258;-69
2023/10/23 07:06:57;;;;;;;9.80;7.20;;;;;;;15.22;89.53;97528.09;110131;1240;60073;-68
2023/10/23 07:09:30;;;;;;;7.50;6.60;;;;;;;15.52;87.95;97530.70;110238;1243;60087;-68
2023/10/23 07:12:01;;;;;;;6.80;5.70;;;;;;;15.74;90.67;97529.19;110288;1242;71360;-68
2023/10/23 07:14:30;;;;;;;10.40;6.60;;;;;;;15.77;89.50;97532.04;110094;1242;68483;-68
2023/10/23 07:17:00;;;;;;;7.10;5.20;;;;;;;15.79;88.82;97532.83;110128;1240;69316;-68
2023/10/23 07:19:31;;;;;;;10.20;7.00;;;;;;;15.70;86.53;97530.83;110168;1242;59671;-68
2023/10/23 07:22:00;;;;;;;9.40;6.10;;;;;;;15.56;85.36;97529.07;110162;1240;59686;-69
2023/10/23 07:24:30;;;;;;;9.80;5.70;;;;;;;15.72;85.79;97528.52;110134;1243;71375;-69
2023/10/23 07:27:01;;;;;;;7.40;5.90;;;;;;;15.95;84.51;97530.48;110164;1242;70085;-70
2023/10/23 07:29:31;;;;;;;9.40;6.10;;;;;;;16.23;82.97;97530.45;110149;1243;68520;-68
2023/10/23 07:32:00;;;;;;;;;;;;;;;16.32;81.75;97528.27;110152;1242;59741;-68
2023/10/23 07:34:30;;;;;;;7.00;4.70;;;;;;;16.58;80.78;97531.38;110128;1244;59675;-70
2023/10/23 07:36:59;;;;;;;8.60;5.50;;;;;;;16.60;80.24;97535.37;110175;1245;72204;-70
2023/10/23 07:39:29;;;;;;;8.20;5.40;;;;;;;16.82;79.34;97540.16;110314;1243;69085;-68
2023/10/23 07:42:03;;;;;;;9.20;5.50;;;;;;;17.28;79.94;97538.52;110152;1242;69136;-70
2023/10/23 07:44:32;;;;;;;7.50;5.30;;;;;;;17.29;77.71;97543.71;110283;1240;59594;-70
2023/10/23 07:47:01;;;;;;;10.70;8.00;;;;;;;17.40;77.61;97545.06;110103;1244;59722;-68
2023/10/23 07:49:30;;;;;;;8.90;6.60;;;;;;;18.10;77.22;97547.10;110227;1241;71733;-68
2023/10/23 07:51:59;;;;;;;13.10;6.80;;;;;;;18.62;75.25;97546.94;110199;1244;69223;-69
2023/10/23 07:54:28;;;;;;;10.70;6.40;;;;;;;19.16;72.87;97546.58;110178;1249;69319;-67
2023/10/23 07:56:58;;;;;;;;;;;;;;;19.52;69.89;97542.09;110210;1242;59740;-69
2023/10/23 07:59:27;;;;;;;8.90;5.80;;;;;;;19.62;68.48;97545.41;110181;1242;59628;-67
2023/10/23 08:01:57;;;;;;;8.00;5.20;;;;;;;19.82;67.45;97544.66;110291;1242;71888;-68
2023/10/23 08:04:27;;;;;;;7.20;4.60;;;;;;;19.58;66.20;97543.57;110111;1244;68554;-67
2023/10/23 08:06:57;;;;;;;9.20;5.70;;;;;;;19.81;65.81;97546.85;110188;1243;69080;-69
2023/10/23 08:09:26;;;;;;;11.10;5.60;;;;;;;20.57;63.53;97544.16;110125;1250;59657;-68
2023/10/23 08:11:55;;;;;;;6.60;4.90;;;;;;;20.98;63.58;97542.73;110152;1250;59692;-70
2023/10/23 08:14:25;;;;;;;;;;;;;;;21.22;60.55;97544.98;110357;1240;71360;-69
2023/10/23 08:16:54;;;;;;;6.60;4.30;;;;;;;21.04;60.22;97545.59;110107;1243;69227;-69
2023/10/23 08:19:24;;;;;;;11.30;6.70;;;;;;;21.18;59.98;97549.53;110169;1246;68309;-68
2023/10/23 08:21:54;;;;;;;9.50;6.30;;;;;;;21.05;60.39;97553.04;110162;1242;59700;-68
2023/10/23 08:24:23;;;;;;;9.10;6.50;;;;;;;21.12;61.11;97551.66;110136;1243;59662;-68
2023/10/23 08:26:53;;;;;;;11.60;7.90;;;;;;;21.46;59.85;97545.96;110164;1242;72020;-70
2023/10/23 08:29:23;;;;;;;8.60;5.20;;;;;;;21.79;57.95;97544.77;110169;1245;68884;-68
2023/10/23 08:31:53;;;;;;;12.10;8.40;;;;;;;21.94;57.85;97543.95;110182;1243;68524;-70
2023/10/23 08:34:22;;;;;;;10.00;6.50;;;;;;;22.73;55.41;97552.00;110147;1242;59703;-70
2023/10/23 08:36:52;;;;;;;11.90;8.20;;;;;;;23.38;52.80;97550.09;110141;1244;59687;-70
2023/10/23 08:39:24;;;;;;;10.90;8.10;;;;;;;23.54;50.85;97556.54;110291;1241;70629;-69
2023/10/23 08:41:54;;;;;;;11.90;9.20;;;;;;;23.65;50.26;97563.14;110246;1242;69140;-69
2023/10/23 08:44:24;;;;;;;11.50;7.40;;;;;;;23.58;50.09;97560.90;110287;1242;69855;-68
2023/10/23 08:46:53;;;;;;;12.40;7.80;;;;;;;23.32;50.45;97560.41;110152;1242;59699;-70
2023/10/23 08:49:23;;;;;;;7.30;5.10;;;;;;;23.62;49.62;97565.80;110204;1240;60036;-70
2023/10/23 08:51:57;;;;;;;9.20;6.40;;;;;;;23.61;49.19;97560.56;110211;1240;71230;-68
2023/10/23 08:54:27;;;;;;;7.00;4.50;;;;;;;23.76;50.40;97557.71;110238;1242;69220;-69
2023/10/23 08:57:02;;;;;;;6.70;3.70;;;;;;;24.10;49.53;97554.52;110145;1245;69754;-68
2023/10/23 08:59:32;;;;;;;5.10;3.60;;;;;;;24.39;47.34;97555.08;110173;1242;59722;-70
2023/10/23 09:02:02;;;;;;;3.30;2.00;;;;;;;24.69;44.91;97549.30;110210;1240;59701;-69
2023/10/23 09:04:31;;;;;;;4.60;3.10;;;;;;;25.13;44.67;97554.14;110144;1241;71986;-69
2023/10/23 09:07:02;;;;;;;5.70;4.00;;;;;;;25.81;44.59;97555.13;110160;1242;69031;-69
2023/10/23 09:09:32;;;;;;;4.70;3.30;;;;;;;26.57;43.06;97558.63;110127;1243;68339;-68
2023/10/23 09:12:03;;;;;;;5.40;1.90;;;;;;;27.22;41.95;97558.80;110149;1242;59748;-68
2023/10/23 09:14:35;;;;;;;2.40;0.80;;;;;;;27.54;38.25;97554.03;110136;1242;59719;-68
2023/10/23 09:17:06;;;;;;;3.70;2.20;;;;;;;28.02;38.96;97545.69;110174;1243;70636;-69
2023/10/23 09:19:39;;;;;;;5.00;2.70;;;;;;;28.40;38.36;97536.02;108371;1242;2520924;-69
2023/10/23 09:22:12;;;;;;;3.00;1.60;;;;;;;28.77;37.21;97536.89;110154;1244;68754;-69
2023/10/23 09:24:45;;;;;;;4.70;2.30;;;;;;;28.68;34.45;97527.76;110138;1240;59739;-69
2023/10/23 09:27:15;;;;;;;3.40;1.50;;;;;;;28.66;35.13;97525.38;110143;1242;59745;-69
2023/10/23 09:29:44;;;;;;;2.50;1.80;;;;;;;28.64;33.88;97523.38;110110;1244;70640;-69
2023/10/23 09:32:16;;;;;;;3.30;1.90;;;;;;;28.93;35.44;97527.23;110111;1250;69860;-69
2023/10/23 09:34:46;;;;;;;3.20;2.10;;;;;;;28.99;35.04;97526.56;110123;1242;68638;-69
2023/10/23 09:37:15;;;;;;;3.30;2.20;;;;;;;29.44;33.96;97530.35;110163;1242;59669;-69
2023/10/23 09:39:45;;;;;;;4.60;2.40;;;;;;;28.88;32.02;97524.47;110143;1250;59666;-70
2023/10/23 09:42:14;;;;;;;3.40;1.80;;;;;;;28.72;32.31;97521.41;110277;1240;71289;-69
2023/10/23 09:44:45;;;;;;;3.40;2.00;;;;;;;28.46;32.56;97515.52;110242;1244;69219;-69
2023/10/23 09:47:16;;;;;;;3.30;1.70;;;;;;;28.57;32.93;97515.89;110223;1245;69255;-69
2023/10/23 09:49:50;;;;;;;5.50;2.10;;;;;;;29.27;32.51;97512.42;110182;1242;59674;-68
2023/10/23 09:52:24;;;;;;;4.20;2.30;;;;;;;29.84;31.17;97514.02;110137;1245;59742;-69
2023/10/23 09:54:59;;;;;;;3.00;2.30;;;;;;;29.10;31.79;97512.27;110116;1242;71236;-68
2023/10/23 09:57:41;;;;;;;2.80;1.80;;;;;;;26.98;34.05;97511.15;110144;1243;69568;-68
2023/10/23 10:00:15;;;;;;;2.80;1.90;;;;;;;28.67;32.83;97506.54;110135;1243;69280;-68
2023/10/23 10:02:58;;;;;;;3.30;1.60;;;;;;;29.04;31.57;97503.64;110127;1242;59647;-69
2023/10/23 10:05:44;;;;;;;3.00;1.90;;;;;;;29.89;31.75;97497.96;110165;1242;59686;-68
2023/10/23 10:08:16;;;;;;;3.50;1.80;;;;;;;30.85;31.59;97491.86;110130;1242;71979;-68
2023/10/23 10:10:48;;;;;;;4.70;3.00;;;;;;;31.05;29.97;97492.84;110123;1242;69131;-68
2023/10/23 10:13:20;;;;;;;3.40;2.20;;;;;;;29.22;31.04;97486.96;110142;1250;69932;-68
2023/10/23 10:15:51;;;;;;;4.20;2.70;;;;;;;29.30;31.58;97485.44;110157;1244;59740;-68
2023/10/23 10:18:22;;;;;;;3.20;2.30;;;;;;;28.64;32.22;97483.36;110131;1243;59740;-68
2023/10/23 10:20:58;;;;;;;3.60;2.30;;;;;;;29.10;32.00;97485.71;110152;1242;71420;-70
2023/10/23 10:23:28;;;;;;;2.70;2.10;;;;;;;29.87;31.22;97479.41;110120;1240;69772;-68
2023/10/23 10:26:00;;;;;;;3.70;2.00;;;;;;;29.89;31.03;97474.61;110140;1242;68194;-68
2023/10/23 10:28:30;;;;;;;3.50;2.50;;;;;;;29.53;31.23;97473.55;110160;1245;59678;-68
2023/10/23 10:30:59;;;;;;;3.80;2.20;;;;;;;29.98;31.22;97473.58;110201;1246;59700;-68
2023/10/23 10:33:31;;;;;;;4.20;1.70;;;;;;;30.60;30.73;97471.30;110183;1242;71432;-67
2023/10/23 10:36:27;;;;;;;3.30;2.00;;;;;;;30.66;30.53;97469.07;110174;1248;69381;-68
2023/10/23 10:39:17;;;;;;;3.10;1.80;;;;;;;30.26;29.48;97461.55;110160;1243;69996;-68
2023/10/23 10:41:46;;;;;;;4.40;3.00;;;;;;;28.97;30.92;97456.39;110149;1242;59664;-68
2023/10/23 10:44:17;;;;;;;2.80;1.90;;;;;;;28.94;31.58;97452.58;110120;1243;59630;-67
2023/10/23 10:46:49;;;;;;;3.30;1.80;;;;;;;29.83;31.44;97446.61;110130;1241;72194;-67
2023/10/23 10:49:22;;;;;;;3.50;2.40;;;;;;;30.37;29.60;97446.25;110149;1242;69188;-67
2023/10/23 10:51:52;;;;;;;3.80;1.80;;;;;;;30.21;29.00;97438.33;110169;1243;69333;-68
2023/10/23 10:54:22;;;;;;;2.50;1.50;;;;;;;29.83;29.48;97437.39;110173;1241;59745;-68
2023/10/23 10:56:52;;;;;;;2.50;1.40;;;;;;;29.73;29.91;97435.63;110159;1242;59678;-67
2023/10/23 10:59:26;;;;;;;2.50;1.40;;;;;;;30.80;29.25;97439.61;110194;1242;70679;-67
2023/10/23 11:01:56;;;;;;;2.40;1.60;;;;;;;29.99;29.36;97434.39;110113;1243;68333;-68
2023/10/23 11:04:25;;;;;;;2.80;1.60;;;;;;;30.91;28.78;97435.04;110141;1242;69946;-68
2023/10/23 11:06:55;;;;;;;4.60;2.00;;;;;;;31.43;28.33;97430.32;110146;1252;59682;-69
2023/10/23 11:09:24;;;;;;;3.40;2.00;;;;;;;31.44;28.10;97429.28;110177;1243;59654;-69
2023/10/23 11:11:59;;;;;;;4.00;1.90;;;;;;;31.39;27.74;97423.45;110199;1241;71684;-69
2023/10/23 11:14:28;;;;;;;3.20;1.10;;;;;;;31.46;27.77;97417.79;110197;1246;69399;-69
2023/10/23 11:16:58;;;;;;;2.00;0.80;;;;;;;31.43;27.76;97418.25;110159;1241;69252;-70
2023/10/23 11:19:28;;;;;;;2.30;1.00;;;;;;;31.07;27.05;97416.38;110168;1242;59701;-68
2023/10/23 11:22:10;;;;;;;2.90;1.30;;;;;;;30.69;27.81;97412.36;110178;1243;59683;-68
2023/10/23 11:24:41;;;;;;;3.20;1.30;;;;;;;31.02;27.63;97411.95;110175;1249;71917;-68
2023/10/23 11:27:09;;;;;;;2.30;1.00;;;;;;;30.96;27.67;97409.08;110151;1243;69211;-68
2023/10/23 11:29:46;;;;;;;2.70;1.10;;;;;;;29.95;28.43;97403.27;110175;1250;70379;-68
2023/10/23 11:32:17;;;;;;;1.90;1.00;;;;;;;29.94;28.31;97397.16;110156;1240;59753;-69
2023/10/23 11:34:47;;;;;;;2.10;0.60;;;;;;;29.12;29.00;97394.11;110169;1243;59658;-68
2023/10/23 11:37:19;;;;;;;1.00;0.60;;;;;;;29.13;28.90;97388.89;110168;1243;71832;-69
2023/10/23 11:39:48;;;;;;;1.70;1.00;;;;;;;29.34;28.50;97387.27;110173;1243;69129;-69
2023/10/23 11:42:18;;;;;;;2.10;1.30;;;;;;;28.84;29.23;97383.39;110101;1242;68515;-70
2023/10/23 11:44:47;;;;;;;1.20;0.90;;;;;;;28.71;29.72;97382.66;110268;1243;59781;-69